sensor_id;sensor_type;location;lat;lon;timestamp;P1;durP1;ratioP1;P2;durP2;ratioP2
74689;SDS011;63221;51.860;-2.188;2022-11-20T00:02:17;8.90;;;3.30;;
74689;SDS011;63221;51.860;-2.188;2022-11-20T00:04:42;6.50;;;2.63;;
74689;SDS011;63221;51.860;-2.188;2022-11-20T00:07:07;6.57;;;2.50;;
74689;SDS011;63221;51.860;-2.188;2022-11-20T00:09:33;5.90;;;2.60;;
74689;SDS011;63221;51.860;-2.188;2022-11-20T00:11:58;6.17;;;3.10;;
74689;SDS011;63221;51.860;-2.188;2022-11-20T00:14:24;5.10;;;2.37;;
74689;SDS011;63221;51.860;-2.188;2022-11-20T00:16:49;6.30;;;3.33;;
74689;SDS011;63221;51.860;-2.188;2022-11-20T00:19:14;8.90;;;3.83;;
74689;SDS011;63221;51.860;-2.188;2022-11-20T00:21:40;5.77;;;3.33;;
74689;SDS011;63221;51.860;-2.188;2022-11-20T00:24:08;7.30;;;2.60;;
74689;SDS011;63221;51.860;-2.188;2022-11-20T00:26:33;11.90;;;3.35;;
74689;SDS011;63221;51.860;-2.188;2022-11-20T00:28:59;7.27;;;2.87;;
74689;SDS011;63221;51.860;-2.188;2022-11-20T00:31:26;6.05;;;2.97;;
74689;SDS011;63221;51.860;-2.188;2022-11-20T00:33:51;6.33;;;2.73;;
74689;SDS011;63221;51.860;-2.188;2022-11-20T00:36:21;7.78;;;2.30;;
74689;SDS011;63221;51.860;-2.188;2022-11-20T00:38:51;7.70;;;2.58;;
74689;SDS011;63221;51.860;-2.188;2022-11-20T00:41:21;4.90;;;2.25;;
74689;SDS011;63221;51.860;-2.188;2022-11-20T00:43:46;6.55;;;3.08;;
74689;SDS011;63221;51.860;-2.188;2022-11-20T00:46:13;4.77;;;2.83;;
74689;SDS011;63221;51.860;-2.188;2022-11-20T00:48:39;6.43;;;3.15;;
74689;SDS011;63221;51.860;-2.188;2022-11-20T00:51:05;6.10;;;1.87;;
74689;SDS011;63221;51.860;-2.188;2022-11-20T00:53:30;3.53;;;1.83;;
74689;SDS011;63221;51.860;-2.188;2022-11-20T00:55:57;4.83;;;2.40;;
74689;SDS011;63221;51.860;-2.188;2022-11-20T00:58:34;4.22;;;2.33;;
74689;SDS011;63221;51.860;-2.188;2022-11-20T01:01:01;7.93;;;2.50;;
74689;SDS011;63221;51.860;-2.188;2022-11-20T01:03:31;6.97;;;2.20;;
74689;SDS011;63221;51.860;-2.188;2022-11-20T01:06:08;6.95;;;2.92;;
74689;SDS011;63221;51.860;-2.188;2022-11-20T01:08:35;5.00;;;2.25;;
74689;SDS011;63221;51.860;-2.188;2022-11-20T01:11:02;6.23;;;2.47;;
74689;SDS011;63221;51.860;-2.188;2022-11-20T01:13:29;4.50;;;2.28;;
74689;SDS011;63221;51.860;-2.188;2022-11-20T01:16:04;5.03;;;2.05;;
74689;SDS011;63221;51.860;-2.188;2022-11-20T01:18:35;4.32;;;2.33;;
74689;SDS011;63221;51.860;-2.188;2022-11-20T01:21:02;3.75;;;2.35;;
74689;SDS011;63221;51.860;-2.188;2022-11-20T01:23:33;8.10;;;2.40;;
74689;SDS011;63221;51.860;-2.188;2022-11-20T01:26:00;5.00;;;1.98;;
74689;SDS011;63221;51.860;-2.188;2022-11-20T01:28:28;4.68;;;2.17;;
74689;SDS011;63221;51.860;-2.188;2022-11-20T01:30:53;6.88;;;2.33;;
74689;SDS011;63221;51.860;-2.188;2022-11-20T01:33:19;7.97;;;1.93;;
74689;SDS011;63221;51.860;-2.188;2022-11-20T01:35:44;5.90;;;2.23;;
74689;SDS011;63221;51.860;-2.188;2022-11-20T01:38:09;4.07;;;1.97;;
74689;SDS011;63221;51.860;-2.188;2022-11-20T01:40:35;4.30;;;1.80;;
74689;SDS011;63221;51.860;-2.188;2022-11-20T01:48:48;3.43;;;0.97;;
74689;SDS011;63221;51.860;-2.188;2022-11-20T01:51:39;6.10;;;2.50;;
74689;SDS011;63221;51.860;-2.188;2022-11-20T01:54:09;5.10;;;2.50;;
74689;SDS011;63221;51.860;-2.188;2022-11-20T01:56:38;3.88;;;2.10;;
74689;SDS011;63221;51.860;-2.188;2022-11-20T01:59:05;5.95;;;2.78;;
74689;SDS011;63221;51.860;-2.188;2022-11-20T02:01:32;3.67;;;1.50;;
74689;SDS011;63221;51.860;-2.188;2022-11-20T02:03:58;6.28;;;2.15;;
74689;SDS011;63221;51.860;-2.188;2022-11-20T02:09:25;4.40;;;2.17;;
74689;SDS011;63221;51.860;-2.188;2022-11-20T02:11:52;3.75;;;2.58;;
74689;SDS011;63221;51.860;-2.188;2022-11-20T02:14:18;3.40;;;1.97;;
74689;SDS011;63221;51.860;-2.188;2022-11-20T02:16:44;4.28;;;2.30;;
74689;SDS011;63221;51.860;-2.188;2022-11-20T02:19:31;4.93;;;1.63;;
74689;SDS011;63221;51.860;-2.188;2022-11-20T02:24:26;2.47;;;1.08;;
74689;SDS011;63221;51.860;-2.188;2022-11-20T02:26:53;3.47;;;1.97;;
74689;SDS011;63221;51.860;-2.188;2022-11-20T02:29:26;4.13;;;1.38;;
74689;SDS011;63221;51.860;-2.188;2022-11-20T02:31:56;3.03;;;1.63;;
74689;SDS011;63221;51.860;-2.188;2022-11-20T02:34:22;3.35;;;1.15;;
74689;SDS011;63221;51.860;-2.188;2022-11-20T02:36:48;2.30;;;1.43;;
74689;SDS011;63221;51.860;-2.188;2022-11-20T02:39:14;3.50;;;1.80;;
74689;SDS011;63221;51.860;-2.188;2022-11-20T02:41:41;2.20;;;1.40;;
74689;SDS011;63221;51.860;-2.188;2022-11-20T02:44:07;3.20;;;1.63;;
74689;SDS011;63221;51.860;-2.188;2022-11-20T02:46:33;2.30;;;1.40;;
74689;SDS011;63221;51.860;-2.188;2022-11-20T02:48:59;1.98;;;1.20;;
74689;SDS011;63221;51.860;-2.188;2022-11-20T02:51:26;2.33;;;1.02;;
74689;SDS011;63221;51.860;-2.188;2022-11-20T02:53:51;4.00;;;1.60;;
74689;SDS011;63221;51.860;-2.188;2022-11-20T02:56:17;4.43;;;1.00;;
74689;SDS011;63221;51.860;-2.188;2022-11-20T02:58:42;1.63;;;1.15;;
74689;SDS011;63221;51.860;-2.188;2022-11-20T03:01:08;1.93;;;1.00;;
74689;SDS011;63221;51.860;-2.188;2022-11-20T03:03:33;1.73;;;0.93;;
74689;SDS011;63221;51.860;-2.188;2022-11-20T03:05:59;3.30;;;1.63;;
74689;SDS011;63221;51.860;-2.188;2022-11-20T03:08:25;2.50;;;0.90;;
74689;SDS011;63221;51.860;-2.188;2022-11-20T03:10:50;2.25;;;1.33;;
74689;SDS011;63221;51.860;-2.188;2022-11-20T03:13:15;2.73;;;1.00;;
74689;SDS011;63221;51.860;-2.188;2022-11-20T03:15:41;3.87;;;0.93;;
74689;SDS011;63221;51.860;-2.188;2022-11-20T03:18:06;2.63;;;0.90;;
74689;SDS011;63221;51.860;-2.188;2022-11-20T03:20:32;1.50;;;0.80;;
74689;SDS011;63221;51.860;-2.188;2022-11-20T03:22:58;1.83;;;0.90;;
74689;SDS011;63221;51.860;-2.188;2022-11-20T03:25:24;2.00;;;1.50;;
74689;SDS011;63221;51.860;-2.188;2022-11-20T03:27:49;2.05;;;1.02;;
74689;SDS011;63221;51.860;-2.188;2022-11-20T03:30:15;2.90;;;0.90;;
74689;SDS011;63221;51.860;-2.188;2022-11-20T03:32:40;2.20;;;1.40;;
74689;SDS011;63221;51.860;-2.188;2022-11-20T03:35:06;1.33;;;1.10;;
74689;SDS011;63221;51.860;-2.188;2022-11-20T03:37:32;1.60;;;1.43;;
74689;SDS011;63221;51.860;-2.188;2022-11-20T03:39:57;1.95;;;0.70;;
74689;SDS011;63221;51.860;-2.188;2022-11-20T03:42:23;2.13;;;1.00;;
74689;SDS011;63221;51.860;-2.188;2022-11-20T03:45:07;1.90;;;1.10;;
74689;SDS011;63221;51.860;-2.188;2022-11-20T03:47:32;1.50;;;0.73;;
74689;SDS011;63221;51.860;-2.188;2022-11-20T03:49:58;1.23;;;0.80;;
74689;SDS011;63221;51.860;-2.188;2022-11-20T03:52:23;1.90;;;1.47;;
74689;SDS011;63221;51.860;-2.188;2022-11-20T03:54:49;1.20;;;0.97;;
74689;SDS011;63221;51.860;-2.188;2022-11-20T03:57:14;2.77;;;0.87;;
74689;SDS011;63221;51.860;-2.188;2022-11-20T03:59:39;1.63;;;0.90;;
74689;SDS011;63221;51.860;-2.188;2022-11-20T04:02:05;1.37;;;0.90;;
74689;SDS011;63221;51.860;-2.188;2022-11-20T04:04:30;3.35;;;0.98;;
74689;SDS011;63221;51.860;-2.188;2022-11-20T04:06:55;1.60;;;1.37;;
74689;SDS011;63221;51.860;-2.188;2022-11-20T04:09:21;1.57;;;1.27;;
74689;SDS011;63221;51.860;-2.188;2022-11-20T04:11:46;2.20;;;1.40;;
74689;SDS011;63221;51.860;-2.188;2022-11-20T04:14:15;1.23;;;0.67;;
74689;SDS011;63221;51.860;-2.188;2022-11-20T04:16:41;1.52;;;0.90;;
74689;SDS011;63221;51.860;-2.188;2022-11-20T04:19:10;1.85;;;1.42;;
74689;SDS011;63221;51.860;-2.188;2022-11-20T04:21:40;1.83;;;1.00;;
74689;SDS011;63221;51.860;-2.188;2022-11-20T04:24:06;1.88;;;1.35;;
74689;SDS011;63221;51.860;-2.188;2022-11-20T04:26:32;1.30;;;0.60;;
74689;SDS011;63221;51.860;-2.188;2022-11-20T04:28:57;1.55;;;0.68;;
74689;SDS011;63221;51.860;-2.188;2022-11-20T04:31:24;1.67;;;0.80;;
74689;SDS011;63221;51.860;-2.188;2022-11-20T04:33:53;1.63;;;1.48;;
74689;SDS011;63221;51.860;-2.188;2022-11-20T04:36:20;1.67;;;1.03;;
74689;SDS011;63221;51.860;-2.188;2022-11-20T04:38:50;1.58;;;1.05;;
74689;SDS011;63221;51.860;-2.188;2022-11-20T04:41:17;1.75;;;0.75;;
74689;SDS011;63221;51.860;-2.188;2022-11-20T04:43:47;2.67;;;0.75;;
74689;SDS011;63221;51.860;-2.188;2022-11-20T04:46:19;5.63;;;1.52;;
74689;SDS011;63221;51.860;-2.188;2022-11-20T04:48:45;1.40;;;1.03;;
74689;SDS011;63221;51.860;-2.188;2022-11-20T04:51:12;1.40;;;0.85;;
74689;SDS011;63221;51.860;-2.188;2022-11-20T04:53:37;1.80;;;1.38;;
74689;SDS011;63221;51.860;-2.188;2022-11-20T04:56:04;1.93;;;1.17;;
74689;SDS011;63221;51.860;-2.188;2022-11-20T04:58:31;2.10;;;1.30;;
74689;SDS011;63221;51.860;-2.188;2022-11-20T05:01:11;4.75;;;1.15;;
74689;SDS011;63221;51.860;-2.188;2022-11-20T05:03:39;2.00;;;0.88;;
74689;SDS011;63221;51.860;-2.188;2022-11-20T05:06:05;1.20;;;0.67;;
74689;SDS011;63221;51.860;-2.188;2022-11-20T05:08:31;2.58;;;0.88;;
74689;SDS011;63221;51.860;-2.188;2022-11-20T05:11:01;2.03;;;1.25;;
74689;SDS011;63221;51.860;-2.188;2022-11-20T05:13:27;2.60;;;1.70;;
74689;SDS011;63221;51.860;-2.188;2022-11-20T05:15:53;3.40;;;1.60;;
74689;SDS011;63221;51.860;-2.188;2022-11-20T05:18:18;2.83;;;1.20;;
74689;SDS011;63221;51.860;-2.188;2022-11-20T05:20:44;3.08;;;1.60;;
74689;SDS011;63221;51.860;-2.188;2022-11-20T05:23:09;2.57;;;1.03;;
74689;SDS011;63221;51.860;-2.188;2022-11-20T05:25:34;3.17;;;1.80;;
74689;SDS011;63221;51.860;-2.188;2022-11-20T05:28:00;3.70;;;1.43;;
74689;SDS011;63221;51.860;-2.188;2022-11-20T05:30:25;4.17;;;2.43;;
74689;SDS011;63221;51.860;-2.188;2022-11-20T05:32:51;4.38;;;1.90;;
74689;SDS011;63221;51.860;-2.188;2022-11-20T05:35:16;3.07;;;1.70;;
74689;SDS011;63221;51.860;-2.188;2022-11-20T05:37:41;5.37;;;2.60;;
74689;SDS011;63221;51.860;-2.188;2022-11-20T05:40:07;3.20;;;2.10;;
74689;SDS011;63221;51.860;-2.188;2022-11-20T05:42:33;3.72;;;2.45;;
74689;SDS011;63221;51.860;-2.188;2022-11-20T05:44:59;4.67;;;2.57;;
74689;SDS011;63221;51.860;-2.188;2022-11-20T05:47:26;5.13;;;2.85;;
74689;SDS011;63221;51.860;-2.188;2022-11-20T05:49:52;5.38;;;2.65;;
74689;SDS011;63221;51.860;-2.188;2022-11-20T05:52:18;4.13;;;2.50;;
74689;SDS011;63221;51.860;-2.188;2022-11-20T05:54:43;4.80;;;2.08;;
74689;SDS011;63221;51.860;-2.188;2022-11-20T05:57:10;5.17;;;2.37;;
74689;SDS011;63221;51.860;-2.188;2022-11-20T05:59:35;4.00;;;2.20;;
74689;SDS011;63221;51.860;-2.188;2022-11-20T06:02:00;4.33;;;1.90;;
74689;SDS011;63221;51.860;-2.188;2022-11-20T06:04:26;5.37;;;1.70;;
74689;SDS011;63221;51.860;-2.188;2022-11-20T06:06:51;4.00;;;2.20;;
74689;SDS011;63221;51.860;-2.188;2022-11-20T06:09:16;5.93;;;1.27;;
74689;SDS011;63221;51.860;-2.188;2022-11-20T06:11:42;4.97;;;1.63;;
74689;SDS011;63221;51.860;-2.188;2022-11-20T06:14:07;6.43;;;1.57;;
74689;SDS011;63221;51.860;-2.188;2022-11-20T06:16:32;4.50;;;2.47;;
74689;SDS011;63221;51.860;-2.188;2022-11-20T06:18:58;6.30;;;1.60;;
74689;SDS011;63221;51.860;-2.188;2022-11-20T06:21:23;5.50;;;2.10;;
74689;SDS011;63221;51.860;-2.188;2022-11-20T06:23:49;4.28;;;2.10;;
74689;SDS011;63221;51.860;-2.188;2022-11-20T06:26:19;5.60;;;2.08;;
74689;SDS011;63221;51.860;-2.188;2022-11-20T06:28:48;3.93;;;1.80;;
74689;SDS011;63221;51.860;-2.188;2022-11-20T06:31:15;6.60;;;1.98;;
74689;SDS011;63221;51.860;-2.188;2022-11-20T06:33:42;7.25;;;3.00;;
74689;SDS011;63221;51.860;-2.188;2022-11-20T06:36:09;9.55;;;2.65;;
74689;SDS011;63221;51.860;-2.188;2022-11-20T06:38:35;7.40;;;2.17;;
74689;SDS011;63221;51.860;-2.188;2022-11-20T06:41:01;3.60;;;1.40;;
74689;SDS011;63221;51.860;-2.188;2022-11-20T06:43:28;3.80;;;1.13;;
74689;SDS011;63221;51.860;-2.188;2022-11-20T06:45:54;6.53;;;1.05;;
74689;SDS011;63221;51.860;-2.188;2022-11-20T06:48:21;6.90;;;1.25;;
74689;SDS011;63221;51.860;-2.188;2022-11-20T06:50:47;5.47;;;1.17;;
74689;SDS011;63221;51.860;-2.188;2022-11-20T06:53:12;6.78;;;1.25;;
74689;SDS011;63221;51.860;-2.188;2022-11-20T06:55:41;6.90;;;2.17;;
74689;SDS011;63221;51.860;-2.188;2022-11-20T06:58:10;5.97;;;1.65;;
74689;SDS011;63221;51.860;-2.188;2022-11-20T07:00:36;7.23;;;1.70;;
74689;SDS011;63221;51.860;-2.188;2022-11-20T07:03:04;6.63;;;1.40;;
74689;SDS011;63221;51.860;-2.188;2022-11-20T07:05:30;4.43;;;1.65;;
74689;SDS011;63221;51.860;-2.188;2022-11-20T07:07:56;6.70;;;1.03;;
74689;SDS011;63221;51.860;-2.188;2022-11-20T07:10:22;5.65;;;2.28;;
74689;SDS011;63221;51.860;-2.188;2022-11-20T07:12:51;8.32;;;2.55;;
74689;SDS011;63221;51.860;-2.188;2022-11-20T07:15:18;4.17;;;1.93;;
74689;SDS011;63221;51.860;-2.188;2022-11-20T07:17:44;3.95;;;1.25;;
74689;SDS011;63221;51.860;-2.188;2022-11-20T07:20:09;4.93;;;2.70;;
74689;SDS011;63221;51.860;-2.188;2022-11-20T07:22:35;5.72;;;1.58;;
74689;SDS011;63221;51.860;-2.188;2022-11-20T07:25:01;3.40;;;1.27;;
74689;SDS011;63221;51.860;-2.188;2022-11-20T07:27:27;6.47;;;1.75;;
74689;SDS011;63221;51.860;-2.188;2022-11-20T07:29:52;8.80;;;3.08;;
74689;SDS011;63221;51.860;-2.188;2022-11-20T07:32:18;6.70;;;2.47;;
74689;SDS011;63221;51.860;-2.188;2022-11-20T07:34:43;8.03;;;2.27;;
74689;SDS011;63221;51.860;-2.188;2022-11-20T07:37:09;4.63;;;1.87;;
74689;SDS011;63221;51.860;-2.188;2022-11-20T07:39:34;5.28;;;1.80;;
74689;SDS011;63221;51.860;-2.188;2022-11-20T07:41:59;5.83;;;2.43;;
74689;SDS011;63221;51.860;-2.188;2022-11-20T07:44:25;5.90;;;2.53;;
74689;SDS011;63221;51.860;-2.188;2022-11-20T07:46:50;7.93;;;1.60;;
74689;SDS011;63221;51.860;-2.188;2022-11-20T07:49:15;9.87;;;1.90;;
74689;SDS011;63221;51.860;-2.188;2022-11-20T07:51:41;6.47;;;1.97;;
74689;SDS011;63221;51.860;-2.188;2022-11-20T07:54:06;9.88;;;1.45;;
74689;SDS011;63221;51.860;-2.188;2022-11-20T07:56:32;10.93;;;1.37;;
74689;SDS011;63221;51.860;-2.188;2022-11-20T07:58:57;5.77;;;2.03;;
74689;SDS011;63221;51.860;-2.188;2022-11-20T08:01:22;5.33;;;1.00;;
74689;SDS011;63221;51.860;-2.188;2022-11-20T08:03:48;6.10;;;1.70;;
74689;SDS011;63221;51.860;-2.188;2022-11-20T08:06:13;7.40;;;2.63;;
74689;SDS011;63221;51.860;-2.188;2022-11-20T08:08:39;7.63;;;1.80;;
74689;SDS011;63221;51.860;-2.188;2022-11-20T08:11:05;19.30;;;3.23;;
74689;SDS011;63221;51.860;-2.188;2022-11-20T08:13:50;6.53;;;1.25;;
74689;SDS011;63221;51.860;-2.188;2022-11-20T08:16:34;9.00;;;2.55;;
74689;SDS011;63221;51.860;-2.188;2022-11-20T08:18:59;10.93;;;2.33;;
74689;SDS011;63221;51.860;-2.188;2022-11-20T08:21:24;8.67;;;2.30;;
74689;SDS011;63221;51.860;-2.188;2022-11-20T08:23:50;9.60;;;2.50;;
74689;SDS011;63221;51.860;-2.188;2022-11-20T08:26:16;9.52;;;2.28;;
74689;SDS011;63221;51.860;-2.188;2022-11-20T08:28:41;8.53;;;2.63;;
74689;SDS011;63221;51.860;-2.188;2022-11-20T08:31:06;11.17;;;2.10;;
74689;SDS011;63221;51.860;-2.188;2022-11-20T08:33:32;10.38;;;2.38;;
74689;SDS011;63221;51.860;-2.188;2022-11-20T08:35:58;8.10;;;1.97;;
74689;SDS011;63221;51.860;-2.188;2022-11-20T08:38:25;14.95;;;2.42;;
74689;SDS011;63221;51.860;-2.188;2022-11-20T08:40:50;7.33;;;1.57;;
74689;SDS011;63221;51.860;-2.188;2022-11-20T08:43:34;11.95;;;2.80;;
74689;SDS011;63221;51.860;-2.188;2022-11-20T08:46:00;10.97;;;2.03;;
74689;SDS011;63221;51.860;-2.188;2022-11-20T08:48:25;10.47;;;2.60;;
74689;SDS011;63221;51.860;-2.188;2022-11-20T08:50:51;7.37;;;2.20;;
74689;SDS011;63221;51.860;-2.188;2022-11-20T08:53:16;7.75;;;2.78;;
74689;SDS011;63221;51.860;-2.188;2022-11-20T08:55:41;8.43;;;2.77;;
74689;SDS011;63221;51.860;-2.188;2022-11-20T08:58:07;13.67;;;3.07;;
74689;SDS011;63221;51.860;-2.188;2022-11-20T09:00:32;12.27;;;3.30;;
74689;SDS011;63221;51.860;-2.188;2022-11-20T09:02:58;10.38;;;2.30;;
74689;SDS011;63221;51.860;-2.188;2022-11-20T09:05:25;18.38;;;3.97;;
74689;SDS011;63221;51.860;-2.188;2022-11-20T09:07:51;19.67;;;4.55;;
74689;SDS011;63221;51.860;-2.188;2022-11-20T09:10:17;18.60;;;4.03;;
74689;SDS011;63221;51.860;-2.188;2022-11-20T09:12:42;17.83;;;6.00;;
74689;SDS011;63221;51.860;-2.188;2022-11-20T09:15:07;11.40;;;2.87;;
74689;SDS011;63221;51.860;-2.188;2022-11-20T09:17:33;13.80;;;3.47;;
74689;SDS011;63221;51.860;-2.188;2022-11-20T09:19:59;12.37;;;2.80;;
74689;SDS011;63221;51.860;-2.188;2022-11-20T09:22:24;12.07;;;2.50;;
74689;SDS011;63221;51.860;-2.188;2022-11-20T09:24:49;14.27;;;2.47;;
74689;SDS011;63221;51.860;-2.188;2022-11-20T09:27:15;12.07;;;3.83;;
74689;SDS011;63221;51.860;-2.188;2022-11-20T09:29:45;12.38;;;2.67;;
74689;SDS011;63221;51.860;-2.188;2022-11-20T09:32:11;8.90;;;2.40;;
74689;SDS011;63221;51.860;-2.188;2022-11-20T09:34:36;10.37;;;2.83;;
74689;SDS011;63221;51.860;-2.188;2022-11-20T09:37:01;11.03;;;2.37;;
74689;SDS011;63221;51.860;-2.188;2022-11-20T09:39:27;10.73;;;3.17;;
74689;SDS011;63221;51.860;-2.188;2022-11-20T09:47:11;11.50;;;2.17;;
74689;SDS011;63221;51.860;-2.188;2022-11-20T09:55:25;14.75;;;1.52;;
74689;SDS011;63221;51.860;-2.188;2022-11-20T09:57:52;11.33;;;1.80;;
74689;SDS011;63221;51.860;-2.188;2022-11-20T10:00:17;8.73;;;2.38;;
74689;SDS011;63221;51.860;-2.188;2022-11-20T10:02:56;7.47;;;2.10;;
74689;SDS011;63221;51.860;-2.188;2022-11-20T10:05:31;9.77;;;1.90;;
74689;SDS011;63221;51.860;-2.188;2022-11-20T10:16:41;8.95;;;2.67;;
74689;SDS011;63221;51.860;-2.188;2022-11-20T10:19:11;12.70;;;2.47;;
74689;SDS011;63221;51.860;-2.188;2022-11-20T10:21:43;15.07;;;2.92;;
74689;SDS011;63221;51.860;-2.188;2022-11-20T10:27:24;12.93;;;3.03;;
74689;SDS011;63221;51.860;-2.188;2022-11-20T10:32:36;10.23;;;3.30;;
74689;SDS011;63221;51.860;-2.188;2022-11-20T10:35:05;19.98;;;2.97;;
74689;SDS011;63221;51.860;-2.188;2022-11-20T10:37:43;11.65;;;3.20;;
74689;SDS011;63221;51.860;-2.188;2022-11-20T10:43:24;6.95;;;1.30;;
74689;SDS011;63221;51.860;-2.188;2022-11-20T10:45:53;6.50;;;1.43;;
74689;SDS011;63221;51.860;-2.188;2022-11-20T10:48:22;14.98;;;1.98;;
74689;SDS011;63221;51.860;-2.188;2022-11-20T10:56:46;9.15;;;1.70;;
74689;SDS011;63221;51.860;-2.188;2022-11-20T11:01:48;7.00;;;1.65;;
74689;SDS011;63221;51.860;-2.188;2022-11-20T11:07:10;12.45;;;1.85;;
74689;SDS011;63221;51.860;-2.188;2022-11-20T11:09:46;7.20;;;1.63;;
74689;SDS011;63221;51.860;-2.188;2022-11-20T11:12:14;11.30;;;1.23;;
74689;SDS011;63221;51.860;-2.188;2022-11-20T11:14:43;6.43;;;0.93;;
74689;SDS011;63221;51.860;-2.188;2022-11-20T11:17:18;9.73;;;1.52;;
74689;SDS011;63221;51.860;-2.188;2022-11-20T11:19:56;7.28;;;1.42;;
74689;SDS011;63221;51.860;-2.188;2022-11-20T11:22:50;10.17;;;2.17;;
74689;SDS011;63221;51.860;-2.188;2022-11-20T11:25:32;12.65;;;2.45;;
74689;SDS011;63221;51.860;-2.188;2022-11-20T11:28:01;7.03;;;1.83;;
74689;SDS011;63221;51.860;-2.188;2022-11-20T11:30:40;7.60;;;1.40;;
74689;SDS011;63221;51.860;-2.188;2022-11-20T11:33:09;14.25;;;2.03;;
74689;SDS011;63221;51.860;-2.188;2022-11-20T11:35:46;13.40;;;3.07;;
74689;SDS011;63221;51.860;-2.188;2022-11-20T11:38:15;16.25;;;2.22;;
74689;SDS011;63221;51.860;-2.188;2022-11-20T11:40:43;5.35;;;2.25;;
74689;SDS011;63221;51.860;-2.188;2022-11-20T11:43:16;13.60;;;1.63;;
74689;SDS011;63221;51.860;-2.188;2022-11-20T11:46:03;11.88;;;1.95;;
74689;SDS011;63221;51.860;-2.188;2022-11-20T11:51:22;9.30;;;2.40;;
74689;SDS011;63221;51.860;-2.188;2022-11-20T11:53:47;8.90;;;1.60;;
74689;SDS011;63221;51.860;-2.188;2022-11-20T11:56:13;10.00;;;2.20;;
74689;SDS011;63221;51.860;-2.188;2022-11-20T12:03:38;9.88;;;1.92;;
74689;SDS011;63221;51.860;-2.188;2022-11-20T12:06:10;13.38;;;1.92;;
74689;SDS011;63221;51.860;-2.188;2022-11-20T12:08:51;11.70;;;1.87;;
74689;SDS011;63221;51.860;-2.188;2022-11-20T12:16:34;10.98;;;2.03;;
74689;SDS011;63221;51.860;-2.188;2022-11-20T12:19:00;12.30;;;2.85;;
74689;SDS011;63221;51.860;-2.188;2022-11-20T12:21:36;12.30;;;3.20;;
74689;SDS011;63221;51.860;-2.188;2022-11-20T12:40:41;11.80;;;2.60;;
74689;SDS011;63221;51.860;-2.188;2022-11-20T12:48:56;6.88;;;1.83;;
74689;SDS011;63221;51.860;-2.188;2022-11-20T13:08:15;2.03;;;0.40;;
74689;SDS011;63221;51.860;-2.188;2022-11-20T13:10:46;1.90;;;0.30;;
74689;SDS011;63221;51.860;-2.188;2022-11-20T13:13:18;3.30;;;0.85;;
74689;SDS011;63221;51.860;-2.188;2022-11-20T13:16:08;2.33;;;0.30;;
74689;SDS011;63221;51.860;-2.188;2022-11-20T13:18:40;3.13;;;1.17;;
74689;SDS011;63221;51.860;-2.188;2022-11-20T13:21:18;2.97;;;0.53;;
74689;SDS011;63221;51.860;-2.188;2022-11-20T13:23:45;3.65;;;0.85;;
74689;SDS011;63221;51.860;-2.188;2022-11-20T13:26:17;1.53;;;0.73;;
74689;SDS011;63221;51.860;-2.188;2022-11-20T13:28:45;4.80;;;1.35;;
74689;SDS011;63221;51.860;-2.188;2022-11-20T13:31:28;2.20;;;0.65;;
74689;SDS011;63221;51.860;-2.188;2022-11-20T13:33:56;1.05;;;0.20;;
74689;SDS011;63221;51.860;-2.188;2022-11-20T13:36:24;1.20;;;0.43;;
74689;SDS011;63221;51.860;-2.188;2022-11-20T13:38:54;2.40;;;1.07;;
74689;SDS011;63221;51.860;-2.188;2022-11-20T13:46:48;1.55;;;0.80;;
74689;SDS011;63221;51.860;-2.188;2022-11-20T13:49:16;1.13;;;0.53;;
74689;SDS011;63221;51.860;-2.188;2022-11-20T14:02:31;0.90;;;0.50;;
74689;SDS011;63221;51.860;-2.188;2022-11-20T14:04:58;2.85;;;0.73;;
74689;SDS011;63221;51.860;-2.188;2022-11-20T14:07:25;2.03;;;0.87;;
74689;SDS011;63221;51.860;-2.188;2022-11-20T14:10:04;0.88;;;0.35;;
74689;SDS011;63221;51.860;-2.188;2022-11-20T14:12:31;2.65;;;0.73;;
74689;SDS011;63221;51.860;-2.188;2022-11-20T14:14:57;1.30;;;0.60;;
74689;SDS011;63221;51.860;-2.188;2022-11-20T14:17:24;1.13;;;1.03;;
74689;SDS011;63221;51.860;-2.188;2022-11-20T14:19:54;2.00;;;0.40;;
74689;SDS011;63221;51.860;-2.188;2022-11-20T14:22:27;2.42;;;1.02;;
74689;SDS011;63221;51.860;-2.188;2022-11-20T14:27:32;1.98;;;0.40;;
74689;SDS011;63221;51.860;-2.188;2022-11-20T14:30:00;1.17;;;0.50;;
74689;SDS011;63221;51.860;-2.188;2022-11-20T14:32:26;1.25;;;0.50;;
74689;SDS011;63221;51.860;-2.188;2022-11-20T14:34:53;1.13;;;0.50;;
74689;SDS011;63221;51.860;-2.188;2022-11-20T14:37:20;1.37;;;0.50;;
74689;SDS011;63221;51.860;-2.188;2022-11-20T14:39:49;1.17;;;0.45;;
74689;SDS011;63221;51.860;-2.188;2022-11-20T14:42:18;2.70;;;0.85;;
74689;SDS011;63221;51.860;-2.188;2022-11-20T14:44:45;2.15;;;0.85;;
74689;SDS011;63221;51.860;-2.188;2022-11-20T14:47:12;2.73;;;1.20;;
74689;SDS011;63221;51.860;-2.188;2022-11-20T14:49:38;3.38;;;0.75;;
74689;SDS011;63221;51.860;-2.188;2022-11-20T14:52:15;2.70;;;0.77;;
74689;SDS011;63221;51.860;-2.188;2022-11-20T14:54:51;3.00;;;0.50;;
74689;SDS011;63221;51.860;-2.188;2022-11-20T14:57:27;2.90;;;1.40;;
74689;SDS011;63221;51.860;-2.188;2022-11-20T15:02:29;2.85;;;1.90;;
74689;SDS011;63221;51.860;-2.188;2022-11-20T15:04:58;1.95;;;0.70;;
74689;SDS011;63221;51.860;-2.188;2022-11-20T15:07:25;3.80;;;1.20;;
74689;SDS011;63221;51.860;-2.188;2022-11-20T15:09:59;2.60;;;0.63;;
74689;SDS011;63221;51.860;-2.188;2022-11-20T15:12:29;1.70;;;0.70;;
74689;SDS011;63221;51.860;-2.188;2022-11-20T15:14:55;1.17;;;0.20;;
74689;SDS011;63221;51.860;-2.188;2022-11-20T15:17:21;3.33;;;1.30;;
74689;SDS011;63221;51.860;-2.188;2022-11-20T15:19:46;3.40;;;0.67;;
74689;SDS011;63221;51.860;-2.188;2022-11-20T15:22:12;2.43;;;0.90;;
74689;SDS011;63221;51.860;-2.188;2022-11-20T15:24:44;2.63;;;1.17;;
74689;SDS011;63221;51.860;-2.188;2022-11-20T15:27:10;3.05;;;0.82;;
74689;SDS011;63221;51.860;-2.188;2022-11-20T15:29:35;3.47;;;0.53;;
74689;SDS011;63221;51.860;-2.188;2022-11-20T15:32:01;1.35;;;0.35;;
74689;SDS011;63221;51.860;-2.188;2022-11-20T15:34:26;2.37;;;0.50;;
74689;SDS011;63221;51.860;-2.188;2022-11-20T15:36:52;2.63;;;1.73;;
74689;SDS011;63221;51.860;-2.188;2022-11-20T15:39:18;1.73;;;1.03;;
74689;SDS011;63221;51.860;-2.188;2022-11-20T15:41:43;1.83;;;0.70;;
74689;SDS011;63221;51.860;-2.188;2022-11-20T15:44:09;3.97;;;1.00;;
74689;SDS011;63221;51.860;-2.188;2022-11-20T15:46:38;3.57;;;0.90;;
74689;SDS011;63221;51.860;-2.188;2022-11-20T15:49:09;1.63;;;1.02;;
74689;SDS011;63221;51.860;-2.188;2022-11-20T15:51:38;6.25;;;2.10;;
74689;SDS011;63221;51.860;-2.188;2022-11-20T15:54:11;3.67;;;1.30;;
74689;SDS011;63221;51.860;-2.188;2022-11-20T15:56:38;2.50;;;0.93;;
74689;SDS011;63221;51.860;-2.188;2022-11-20T15:59:04;4.32;;;1.35;;
74689;SDS011;63221;51.860;-2.188;2022-11-20T16:01:30;3.13;;;1.10;;
74689;SDS011;63221;51.860;-2.188;2022-11-20T16:03:56;2.20;;;1.38;;
74689;SDS011;63221;51.860;-2.188;2022-11-20T16:06:21;3.63;;;1.17;;
74689;SDS011;63221;51.860;-2.188;2022-11-20T16:08:46;5.80;;;2.63;;
74689;SDS011;63221;51.860;-2.188;2022-11-20T16:11:13;5.67;;;2.83;;
74689;SDS011;63221;51.860;-2.188;2022-11-20T16:13:39;5.20;;;3.03;;
74689;SDS011;63221;51.860;-2.188;2022-11-20T16:16:33;8.25;;;3.67;;
74689;SDS011;63221;51.860;-2.188;2022-11-20T16:19:00;6.82;;;3.70;;
74689;SDS011;63221;51.860;-2.188;2022-11-20T16:21:26;8.53;;;3.60;;
74689;SDS011;63221;51.860;-2.188;2022-11-20T16:23:58;7.45;;;4.00;;
74689;SDS011;63221;51.860;-2.188;2022-11-20T16:26:24;3.60;;;2.92;;
74689;SDS011;63221;51.860;-2.188;2022-11-20T16:28:50;6.90;;;2.70;;
74689;SDS011;63221;51.860;-2.188;2022-11-20T16:31:16;3.17;;;2.33;;
74689;SDS011;63221;51.860;-2.188;2022-11-20T16:33:42;6.13;;;2.78;;
74689;SDS011;63221;51.860;-2.188;2022-11-20T16:36:13;4.18;;;2.42;;
74689;SDS011;63221;51.860;-2.188;2022-11-20T16:38:39;5.80;;;1.90;;
74689;SDS011;63221;51.860;-2.188;2022-11-20T16:41:05;6.43;;;1.40;;
74689;SDS011;63221;51.860;-2.188;2022-11-20T16:43:40;3.75;;;1.00;;